sensor_id;sensor_type;location;lat;lon;timestamp;P1;durP1;ratioP1;P2;durP2;ratioP2
20729;SDS011;10526;50.850;12.928;2023-10-19T00:04:40;16.23;;;7.65;;
20729;SDS011;10526;50.850;12.928;2023-10-19T00:09:02;15.30;;;8.60;;
20729;SDS011;10526;50.850;12.928;2023-10-19T00:13:25;16.13;;;7.43;;
20729;SDS011;10526;50.850;12.928;2023-10-19T00:17:50;17.55;;;8.63;;
20729;SDS011;10526;50.850;12.928;2023-10-19T00:22:16;16.13;;;7.28;;
20729;SDS011;10526;50.850;12.928;2023-10-19T00:26:42;14.13;;;7.70;;
20729;SDS011;10526;50.850;12.928;2023-10-19T00:31:05;17.52;;;8.32;;
20729;SDS011;10526;50.850;12.928;2023-10-19T00:35:30;17.58;;;8.15;;
20729;SDS011;10526;50.850;12.928;2023-10-19T00:40:03;16.55;;;8.57;;
20729;SDS011;10526;50.850;12.928;2023-10-19T00:44:37;21.02;;;8.73;;
20729;SDS011;10526;50.850;12.928;2023-10-19T00:49:03;19.00;;;9.50;;
20729;SDS011;10526;50.850;12.928;2023-10-19T00:53:30;17.10;;;9.32;;
20729;SDS011;10526;50.850;12.928;2023-10-19T00:57:52;16.10;;;8.18;;
20729;SDS011;10526;50.850;12.928;2023-10-19T01:02:16;15.50;;;7.90;;
20729;SDS011;10526;50.850;12.928;2023-10-19T01:06:41;17.17;;;8.25;;
20729;SDS011;10526;50.850;12.928;2023-10-19T01:11:21;18.45;;;7.82;;
20729;SDS011;10526;50.850;12.928;2023-10-19T01:15:49;20.88;;;8.75;;
20729;SDS011;10526;50.850;12.928;2023-10-19T01:20:12;14.95;;;7.15;;
20729;SDS011;10526;50.850;12.928;2023-10-19T01:24:52;20.42;;;9.00;;
20729;SDS011;10526;50.850;12.928;2023-10-19T01:29:17;18.20;;;8.60;;
20729;SDS011;10526;50.850;12.928;2023-10-19T01:33:47;19.85;;;9.25;;
20729;SDS011;10526;50.850;12.928;2023-10-19T01:38:10;16.95;;;8.55;;
20729;SDS011;10526;50.850;12.928;2023-10-19T01:42:32;20.88;;;10.75;;
20729;SDS011;10526;50.850;12.928;2023-10-19T01:46:54;22.33;;;11.20;;
20729;SDS011;10526;50.850;12.928;2023-10-19T01:51:17;23.38;;;11.82;;
20729;SDS011;10526;50.850;12.928;2023-10-19T01:55:39;21.55;;;11.93;;
20729;SDS011;10526;50.850;12.928;2023-10-19T02:00:01;21.30;;;10.68;;
20729;SDS011;10526;50.850;12.928;2023-10-19T02:04:34;22.17;;;11.95;;
20729;SDS011;10526;50.850;12.928;2023-10-19T02:08:58;23.38;;;13.50;;
20729;SDS011;10526;50.850;12.928;2023-10-19T02:13:42;24.02;;;12.50;;
20729;SDS011;10526;50.850;12.928;2023-10-19T02:18:08;23.35;;;12.27;;
20729;SDS011;10526;50.850;12.928;2023-10-19T02:22:30;25.67;;;15.25;;
20729;SDS011;10526;50.850;12.928;2023-10-19T02:26:54;25.48;;;14.95;;
20729;SDS011;10526;50.850;12.928;2023-10-19T02:31:19;26.08;;;14.98;;
20729;SDS011;10526;50.850;12.928;2023-10-19T02:35:47;25.05;;;14.57;;
20729;SDS011;10526;50.850;12.928;2023-10-19T02:40:11;26.98;;;15.93;;
20729;SDS011;10526;50.850;12.928;2023-10-19T02:44:40;28.75;;;15.10;;
20729;SDS011;10526;50.850;12.928;2023-10-19T02:49:03;29.63;;;17.10;;
20729;SDS011;10526;50.850;12.928;2023-10-19T02:53:31;27.88;;;16.05;;
20729;SDS011;10526;50.850;12.928;2023-10-19T02:57:54;28.02;;;16.40;;
20729;SDS011;10526;50.850;12.928;2023-10-19T03:02:16;25.90;;;15.80;;
20729;SDS011;10526;50.850;12.928;2023-10-19T03:06:39;31.25;;;18.20;;
20729;SDS011;10526;50.850;12.928;2023-10-19T03:11:02;34.42;;;18.95;;
20729;SDS011;10526;50.850;12.928;2023-10-19T03:15:28;36.28;;;21.45;;
20729;SDS011;10526;50.850;12.928;2023-10-19T03:19:54;34.67;;;20.25;;
20729;SDS011;10526;50.850;12.928;2023-10-19T03:24:18;35.13;;;21.02;;
20729;SDS011;10526;50.850;12.928;2023-10-19T03:28:59;35.75;;;20.90;;
20729;SDS011;10526;50.850;12.928;2023-10-19T03:33:29;39.80;;;22.75;;
20729;SDS011;10526;50.850;12.928;2023-10-19T03:37:53;35.03;;;21.88;;
20729;SDS011;10526;50.850;12.928;2023-10-19T03:42:19;33.70;;;22.73;;
20729;SDS011;10526;50.850;12.928;2023-10-19T03:46:43;35.92;;;21.52;;
20729;SDS011;10526;50.850;12.928;2023-10-19T03:51:14;41.17;;;23.75;;
20729;SDS011;10526;50.850;12.928;2023-10-19T03:55:37;37.92;;;23.42;;
20729;SDS011;10526;50.850;12.928;2023-10-19T04:00:00;36.65;;;22.30;;
20729;SDS011;10526;50.850;12.928;2023-10-19T04:04:22;40.45;;;23.35;;
20729;SDS011;10526;50.850;12.928;2023-10-19T04:08:44;35.92;;;23.55;;
20729;SDS011;10526;50.850;12.928;2023-10-19T04:13:11;33.60;;;20.92;;
20729;SDS011;10526;50.850;12.928;2023-10-19T04:17:34;32.30;;;21.88;;
20729;SDS011;10526;50.850;12.928;2023-10-19T04:21:57;34.05;;;23.58;;
20729;SDS011;10526;50.850;12.928;2023-10-19T04:26:20;34.25;;;21.98;;
20729;SDS011;10526;50.850;12.928;2023-10-19T04:30:42;36.03;;;23.02;;
20729;SDS011;10526;50.850;12.928;2023-10-19T04:35:04;33.80;;;22.67;;
20729;SDS011;10526;50.850;12.928;2023-10-19T04:39:29;34.40;;;20.48;;
20729;SDS011;10526;50.850;12.928;2023-10-19T04:43:51;32.83;;;21.33;;
20729;SDS011;10526;50.850;12.928;2023-10-19T04:48:14;33.85;;;21.55;;
20729;SDS011;10526;50.850;12.928;2023-10-19T04:52:36;34.83;;;22.63;;
20729;SDS011;10526;50.850;12.928;2023-10-19T04:56:58;34.03;;;23.30;;
20729;SDS011;10526;50.850;12.928;2023-10-19T05:01:21;36.63;;;23.65;;
20729;SDS011;10526;50.850;12.928;2023-10-19T05:05:44;32.10;;;21.92;;
20729;SDS011;10526;50.850;12.928;2023-10-19T05:10:07;38.28;;;21.98;;
20729;SDS011;10526;50.850;12.928;2023-10-19T05:14:30;38.72;;;25.00;;
20729;SDS011;10526;50.850;12.928;2023-10-19T05:18:52;33.08;;;20.90;;
20729;SDS011;10526;50.850;12.928;2023-10-19T05:23:15;36.67;;;23.10;;
20729;SDS011;10526;50.850;12.928;2023-10-19T05:27:37;35.15;;;22.67;;
20729;SDS011;10526;50.850;12.928;2023-10-19T05:32:00;31.95;;;19.13;;
20729;SDS011;10526;50.850;12.928;2023-10-19T05:36:25;34.60;;;22.48;;
20729;SDS011;10526;50.850;12.928;2023-10-19T05:40:47;34.75;;;20.88;;
20729;SDS011;10526;50.850;12.928;2023-10-19T05:45:11;37.47;;;22.40;;
20729;SDS011;10526;50.850;12.928;2023-10-19T05:49:39;35.60;;;23.77;;
20729;SDS011;10526;50.850;12.928;2023-10-19T05:54:02;35.20;;;23.40;;
20729;SDS011;10526;50.850;12.928;2023-10-19T05:58:25;39.30;;;24.52;;
20729;SDS011;10526;50.850;12.928;2023-10-19T06:02:48;34.70;;;23.33;;
20729;SDS011;10526;50.850;12.928;2023-10-19T06:07:11;36.17;;;21.83;;
20729;SDS011;10526;50.850;12.928;2023-10-19T06:11:33;38.15;;;22.85;;
20729;SDS011;10526;50.850;12.928;2023-10-19T06:15:58;38.85;;;21.15;;
20729;SDS011;10526;50.850;12.928;2023-10-19T06:20:21;36.63;;;25.08;;
20729;SDS011;10526;50.850;12.928;2023-10-19T06:24:47;39.75;;;23.92;;
20729;SDS011;10526;50.850;12.928;2023-10-19T06:29:10;39.67;;;24.77;;
20729;SDS011;10526;50.850;12.928;2023-10-19T06:33:32;38.65;;;23.60;;
20729;SDS011;10526;50.850;12.928;2023-10-19T06:37:54;36.88;;;24.75;;
20729;SDS011;10526;50.850;12.928;2023-10-19T06:42:17;36.15;;;22.70;;
20729;SDS011;10526;50.850;12.928;2023-10-19T06:46:40;37.00;;;22.33;;
20729;SDS011;10526;50.850;12.928;2023-10-19T06:51:03;37.72;;;22.98;;
20729;SDS011;10526;50.850;12.928;2023-10-19T06:55:26;37.28;;;22.90;;
20729;SDS011;10526;50.850;12.928;2023-10-19T06:59:49;33.75;;;20.08;;
20729;SDS011;10526;50.850;12.928;2023-10-19T07:04:13;33.22;;;21.88;;
20729;SDS011;10526;50.850;12.928;2023-10-19T07:08:36;37.10;;;21.50;;
20729;SDS011;10526;50.850;12.928;2023-10-19T07:12:58;32.58;;;20.10;;
20729;SDS011;10526;50.850;12.928;2023-10-19T07:17:20;32.20;;;20.17;;
20729;SDS011;10526;50.850;12.928;2023-10-19T07:21:42;29.45;;;18.38;;
20729;SDS011;10526;50.850;12.928;2023-10-19T07:26:09;32.50;;;20.80;;
20729;SDS011;10526;50.850;12.928;2023-10-19T07:30:33;31.25;;;20.38;;
20729;SDS011;10526;50.850;12.928;2023-10-19T07:34:56;32.40;;;21.83;;
20729;SDS011;10526;50.850;12.928;2023-10-19T07:39:19;33.25;;;21.17;;
20729;SDS011;10526;50.850;12.928;2023-10-19T07:43:41;30.08;;;20.60;;
20729;SDS011;10526;50.850;12.928;2023-10-19T07:48:06;30.30;;;18.23;;
20729;SDS011;10526;50.850;12.928;2023-10-19T07:52:28;26.85;;;18.67;;
20729;SDS011;10526;50.850;12.928;2023-10-19T07:56:50;30.38;;;19.40;;
20729;SDS011;10526;50.850;12.928;2023-10-19T08:01:12;26.08;;;17.77;;
20729;SDS011;10526;50.850;12.928;2023-10-19T08:05:35;32.60;;;19.63;;
20729;SDS011;10526;50.850;12.928;2023-10-19T08:10:00;27.77;;;17.65;;
20729;SDS011;10526;50.850;12.928;2023-10-19T08:14:24;27.95;;;18.50;;
20729;SDS011;10526;50.850;12.928;2023-10-19T08:18:46;31.77;;;20.70;;
20729;SDS011;10526;50.850;12.928;2023-10-19T08:23:09;25.98;;;18.30;;
20729;SDS011;10526;50.850;12.928;2023-10-19T08:27:34;26.35;;;17.13;;
20729;SDS011;10526;50.850;12.928;2023-10-19T08:31:56;25.35;;;17.27;;
20729;SDS011;10526;50.850;12.928;2023-10-19T08:36:20;27.50;;;16.08;;
20729;SDS011;10526;50.850;12.928;2023-10-19T08:40:42;26.27;;;16.33;;
20729;SDS011;10526;50.850;12.928;2023-10-19T08:45:05;25.27;;;15.98;;
20729;SDS011;10526;50.850;12.928;2023-10-19T08:49:29;27.55;;;17.98;;
20729;SDS011;10526;50.850;12.928;2023-10-19T08:53:53;21.05;;;13.63;;
20729;SDS011;10526;50.850;12.928;2023-10-19T08:58:15;22.38;;;14.27;;
20729;SDS011;10526;50.850;12.928;2023-10-19T09:02:39;24.42;;;14.82;;
20729;SDS011;10526;50.850;12.928;2023-10-19T09:07:02;27.42;;;14.85;;
20729;SDS011;10526;50.850;12.928;2023-10-19T09:11:30;24.58;;;14.80;;
20729;SDS011;10526;50.850;12.928;2023-10-19T09:15:52;22.90;;;14.98;;
20729;SDS011;10526;50.850;12.928;2023-10-19T09:20:15;24.45;;;14.80;;
20729;SDS011;10526;50.850;12.928;2023-10-19T09:24:49;23.08;;;12.98;;
20729;SDS011;10526;50.850;12.928;2023-10-19T09:29:12;21.73;;;14.18;;
20729;SDS011;10526;50.850;12.928;2023-10-19T09:33:45;21.55;;;13.27;;
20729;SDS011;10526;50.850;12.928;2023-10-19T09:38:10;22.88;;;13.90;;
20729;SDS011;10526;50.850;12.928;2023-10-19T09:42:32;20.52;;;13.82;;
20729;SDS011;10526;50.850;12.928;2023-10-19T09:46:54;23.92;;;13.15;;
20729;SDS011;10526;50.850;12.928;2023-10-19T09:51:20;21.73;;;12.93;;
20729;SDS011;10526;50.850;12.928;2023-10-19T09:55:43;21.50;;;13.07;;
20729;SDS011;10526;50.850;12.928;2023-10-19T10:00:08;21.27;;;13.23;;
20729;SDS011;10526;50.850;12.928;2023-10-19T10:04:34;17.77;;;11.38;;
20729;SDS011;10526;50.850;12.928;2023-10-19T10:09:00;18.85;;;11.93;;
20729;SDS011;10526;50.850;12.928;2023-10-19T10:17:51;19.20;;;12.40;;
20729;SDS011;10526;50.850;12.928;2023-10-19T10:22:16;20.15;;;10.95;;
20729;SDS011;10526;50.850;12.928;2023-10-19T10:26:59;17.55;;;10.77;;
20729;SDS011;10526;50.850;12.928;2023-10-19T10:31:24;18.38;;;10.55;;
20729;SDS011;10526;50.850;12.928;2023-10-19T10:35:53;19.98;;;9.80;;
20729;SDS011;10526;50.850;12.928;2023-10-19T10:40:15;16.23;;;9.20;;
20729;SDS011;10526;50.850;12.928;2023-10-19T10:49:07;15.30;;;9.02;;
20729;SDS011;10526;50.850;12.928;2023-10-19T10:53:30;15.57;;;8.98;;
20729;SDS011;10526;50.850;12.928;2023-10-19T10:57:54;14.48;;;8.05;;
20729;SDS011;10526;50.850;12.928;2023-10-19T11:02:19;12.05;;;6.90;;
20729;SDS011;10526;50.850;12.928;2023-10-19T11:06:53;14.45;;;7.07;;
20729;SDS011;10526;50.850;12.928;2023-10-19T11:11:18;14.75;;;7.30;;
20729;SDS011;10526;50.850;12.928;2023-10-19T11:15:49;14.38;;;7.22;;
20729;SDS011;10526;50.850;12.928;2023-10-19T11:20:20;14.80;;;8.07;;
20729;SDS011;10526;50.850;12.928;2023-10-19T11:24:44;14.23;;;7.55;;
20729;SDS011;10526;50.850;12.928;2023-10-19T11:29:06;13.93;;;7.05;;
20729;SDS011;10526;50.850;12.928;2023-10-19T11:33:31;12.55;;;6.00;;
20729;SDS011;10526;50.850;12.928;2023-10-19T11:37:54;12.35;;;6.32;;
20729;SDS011;10526;50.850;12.928;2023-10-19T11:42:21;11.07;;;5.47;;
20729;SDS011;10526;50.850;12.928;2023-10-19T11:46:43;10.48;;;4.55;;
20729;SDS011;10526;50.850;12.928;2023-10-19T11:51:06;14.57;;;6.32;;
20729;SDS011;10526;50.850;12.928;2023-10-19T11:55:28;14.68;;;6.65;;
20729;SDS011;10526;50.850;12.928;2023-10-19T11:59:50;13.85;;;6.82;;
20729;SDS011;10526;50.850;12.928;2023-10-19T12:04:17;12.77;;;6.32;;
20729;SDS011;10526;50.850;12.928;2023-10-19T12:08:40;11.68;;;5.80;;
20729;SDS011;10526;50.850;12.928;2023-10-19T12:13:03;9.80;;;4.90;;
20729;SDS011;10526;50.850;12.928;2023-10-19T12:17:29;9.07;;;4.30;;
20729;SDS011;10526;50.850;12.928;2023-10-19T12:21:53;6.85;;;3.42;;
20729;SDS011;10526;50.850;12.928;2023-10-19T12:26:15;4.82;;;2.63;;
20729;SDS011;10526;50.850;12.928;2023-10-19T12:30:37;7.38;;;3.17;;
20729;SDS011;10526;50.850;12.928;2023-10-19T12:35:00;7.45;;;2.75;;
20729;SDS011;10526;50.850;12.928;2023-10-19T12:39:24;8.13;;;3.00;;
20729;SDS011;10526;50.850;12.928;2023-10-19T12:44:07;10.80;;;3.50;;
20729;SDS011;10526;50.850;12.928;2023-10-19T12:48:33;10.40;;;4.18;;
20729;SDS011;10526;50.850;12.928;2023-10-19T12:52:56;6.55;;;3.08;;
20729;SDS011;10526;50.850;12.928;2023-10-19T12:57:20;7.47;;;3.65;;
20729;SDS011;10526;50.850;12.928;2023-10-19T13:01:44;7.47;;;3.42;;
20729;SDS011;10526;50.850;12.928;2023-10-19T13:06:10;7.13;;;3.38;;
20729;SDS011;10526;50.850;12.928;2023-10-19T13:10:36;7.32;;;3.38;;
20729;SDS011;10526;50.850;12.928;2023-10-19T13:14:58;6.53;;;3.28;;
20729;SDS011;10526;50.850;12.928;2023-10-19T13:19:21;6.80;;;3.13;;
20729;SDS011;10526;50.850;12.928;2023-10-19T13:23:46;6.53;;;3.35;;
20729;SDS011;10526;50.850;12.928;2023-10-19T13:28:10;8.55;;;3.78;;
20729;SDS011;10526;50.850;12.928;2023-10-19T13:32:34;8.65;;;4.10;;
20729;SDS011;10526;50.850;12.928;2023-10-19T13:36:56;10.32;;;4.40;;
20729;SDS011;10526;50.850;12.928;2023-10-19T13:41:19;9.65;;;3.88;;
20729;SDS011;10526;50.850;12.928;2023-10-19T13:45:42;9.68;;;4.40;;
20729;SDS011;10526;50.850;12.928;2023-10-19T13:50:05;8.77;;;3.80;;
20729;SDS011;10526;50.850;12.928;2023-10-19T13:54:28;7.55;;;3.92;;
20729;SDS011;10526;50.850;12.928;2023-10-19T13:58:51;10.23;;;3.50;;
20729;SDS011;10526;50.850;12.928;2023-10-19T14:03:13;7.30;;;2.88;;
20729;SDS011;10526;50.850;12.928;2023-10-19T14:07:37;8.18;;;2.90;;
20729;SDS011;10526;50.850;12.928;2023-10-19T14:12:01;8.48;;;3.40;;
20729;SDS011;10526;50.850;12.928;2023-10-19T14:16:25;8.10;;;3.38;;
20729;SDS011;10526;50.850;12.928;2023-10-19T14:20:48;7.93;;;3.15;;
20729;SDS011;10526;50.850;12.928;2023-10-19T14:25:11;7.20;;;2.90;;
20729;SDS011;10526;50.850;12.928;2023-10-19T14:29:34;7.28;;;3.10;;
20729;SDS011;10526;50.850;12.928;2023-10-19T14:33:57;7.93;;;3.83;;
20729;SDS011;10526;50.850;12.928;2023-10-19T14:38:20;10.13;;;3.50;;
20729;SDS011;10526;50.850;12.928;2023-10-19T14:42:48;9.60;;;3.97;;
20729;SDS011;10526;50.850;12.928;2023-10-19T14:47:13;9.60;;;3.80;;
20729;SDS011;10526;50.850;12.928;2023-10-19T14:51:35;11.07;;;3.47;;
20729;SDS011;10526;50.850;12.928;2023-10-19T14:55:58;12.50;;;3.75;;
20729;SDS011;10526;50.850;12.928;2023-10-19T15:00:20;7.57;;;3.22;;
20729;SDS011;10526;50.850;12.928;2023-10-19T15:04:56;10.65;;;3.92;;
20729;SDS011;10526;50.850;12.928;2023-10-19T15:09:18;10.93;;;4.45;;
20729;SDS011;10526;50.850;12.928;2023-10-19T15:13:46;16.20;;;5.38;;
20729;SDS011;10526;50.850;12.928;2023-10-19T15:18:08;17.88;;;4.75;;
20729;SDS011;10526;50.850;12.928;2023-10-19T15:22:31;15.65;;;5.68;;
20729;SDS011;10526;50.850;12.928;2023-10-19T15:26:59;13.82;;;5.05;;
20729;SDS011;10526;50.850;12.928;2023-10-19T15:31:21;15.15;;;5.10;;
20729;SDS011;10526;50.850;12.928;2023-10-19T15:35:47;17.98;;;5.40;;
20729;SDS011;10526;50.850;12.928;2023-10-19T15:40:09;15.10;;;5.78;;
20729;SDS011;10526;50.850;12.928;2023-10-19T15:44:36;16.77;;;5.55;;
20729;SDS011;10526;50.850;12.928;2023-10-19T15:48:59;14.73;;;6.68;;
20729;SDS011;10526;50.850;12.928;2023-10-19T15:53:21;16.45;;;6.13;;
20729;SDS011;10526;50.850;12.928;2023-10-19T15:57:43;14.68;;;6.25;;
20729;SDS011;10526;50.850;12.928;2023-10-19T16:02:05;13.85;;;5.70;;
20729;SDS011;10526;50.850;12.928;2023-10-19T16:06:28;14.20;;;6.20;;
20729;SDS011;10526;50.850;12.928;2023-10-19T16:10:50;13.75;;;6.22;;
20729;SDS011;10526;50.850;12.928;2023-10-19T16:15:15;16.80;;;7.18;;
20729;SDS011;10526;50.850;12.928;2023-10-19T16:19:37;15.20;;;6.57;;
20729;SDS011;10526;50.850;12.928;2023-10-19T16:23:59;14.77;;;6.95;;
20729;SDS011;10526;50.850;12.928;2023-10-19T16:28:22;16.15;;;7.68;;
20729;SDS011;10526;50.850;12.928;2023-10-19T16:32:44;16.40;;;7.85;;
20729;SDS011;10526;50.850;12.928;2023-10-19T16:37:08;17.85;;;8.10;;
20729;SDS011;10526;50.850;12.928;2023-10-19T16:41:31;18.60;;;8.18;;
20729;SDS011;10526;50.850;12.928;2023-10-19T16:45:54;17.42;;;7.68;;
20729;SDS011;10526;50.850;12.928;2023-10-19T16:50:16;13.90;;;6.95;;
20729;SDS011;10526;50.850;12.928;2023-10-19T16:54:40;19.30;;;11.38;;
20729;SDS011;10526;50.850;12.928;2023-10-19T16:59:02;16.60;;;7.78;;
20729;SDS011;10526;50.850;12.928;2023-10-19T17:03:27;16.98;;;9.05;;
20729;SDS011;10526;50.850;12.928;2023-10-19T17:07:50;15.90;;;8.13;;
20729;SDS011;10526;50.850;12.928;2023-10-19T17:12:12;13.90;;;7.18;;
20729;SDS011;10526;50.850;12.928;2023-10-19T17:16:35;15.10;;;6.82;;
20729;SDS011;10526;50.850;12.928;2023-10-19T17:21:00;14.63;;;6.93;;
20729;SDS011;10526;50.850;12.928;2023-10-19T17:25:24;15.18;;;7.63;;
20729;SDS011;10526;50.850;12.928;2023-10-19T17:29:46;16.48;;;7.10;;
20729;SDS011;10526;50.850;12.928;2023-10-19T17:34:08;15.23;;;7.20;;
20729;SDS011;10526;50.850;12.928;2023-10-19T17:38:31;14.85;;;7.72;;
20729;SDS011;10526;50.850;12.928;2023-10-19T17:42:53;16.30;;;7.65;;
20729;SDS011;10526;50.850;12.928;2023-10-19T17:47:15;17.73;;;8.45;;
20729;SDS011;10526;50.850;12.928;2023-10-19T17:51:38;15.77;;;8.30;;
20729;SDS011;10526;50.850;12.928;2023-10-19T17:56:00;19.35;;;9.15;;
20729;SDS011;10526;50.850;12.928;2023-10-19T18:00:22;16.67;;;8.65;;
20729;SDS011;10526;50.850;12.928;2023-10-19T18:04:45;26.67;;;14.70;;
20729;SDS011;10526;50.850;12.928;2023-10-19T18:09:15;16.10;;;8.85;;
20729;SDS011;10526;50.850;12.928;2023-10-19T18:13:37;29.95;;;12.23;;
20729;SDS011;10526;50.850;12.928;2023-10-19T18:17:59;16.83;;;9.10;;
20729;SDS011;10526;50.850;12.928;2023-10-19T18:22:22;19.73;;;9.60;;
20729;SDS011;10526;50.850;12.928;2023-10-19T18:26:44;21.98;;;11.80;;
20729;SDS011;10526;50.850;12.928;2023-10-19T18:31:07;26.70;;;14.35;;
20729;SDS011;10526;50.850;12.928;2023-10-19T18:35:29;22.75;;;12.40;;
20729;SDS011;10526;50.850;12.928;2023-10-19T18:39:52;20.08;;;11.85;;
20729;SDS011;10526;50.850;12.928;2023-10-19T18:44:14;20.58;;;13.85;;
20729;SDS011;10526;50.850;12.928;2023-10-19T18:48:36;26.92;;;15.85;;
20729;SDS011;10526;50.850;12.928;2023-10-19T18:52:58;26.67;;;13.48;;
20729;SDS011;10526;50.850;12.928;2023-10-19T18:57:20;22.70;;;12.82;;
20729;SDS011;10526;50.850;12.928;2023-10-19T19:01:43;23.67;;;14.05;;
20729;SDS011;10526;50.850;12.928;2023-10-19T19:06:05;25.95;;;16.45;;
20729;SDS011;10526;50.850;12.928;2023-10-19T19:10:28;26.35;;;18.95;;
20729;SDS011;10526;50.850;12.928;2023-10-19T19:14:54;21.48;;;13.80;;
20729;SDS011;10526;50.850;12.928;2023-10-19T19:19:17;20.25;;;11.63;;
20729;SDS011;10526;50.850;12.928;2023-10-19T19:23:40;20.58;;;11.55;;
20729;SDS011;10526;50.850;12.928;2023-10-19T19:28:03;23.13;;;14.45;;
20729;SDS011;10526;50.850;12.928;2023-10-19T19:32:27;22.45;;;14.77;;
20729;SDS011;10526;50.850;12.928;2023-10-19T19:36:49;23.15;;;13.82;;
20729;SDS011;10526;50.850;12.928;2023-10-19T19:41:13;22.85;;;14.02;;
20729;SDS011;10526;50.850;12.928;2023-10-19T19:45:35;23.05;;;15.73;;
20729;SDS011;10526;50.850;12.928;2023-10-19T19:49:58;24.67;;;16.35;;
20729;SDS011;10526;50.850;12.928;2023-10-19T19:54:20;26.42;;;14.70;;
20729;SDS011;10526;50.850;12.928;2023-10-19T19:58:43;24.20;;;16.90;;
20729;SDS011;10526;50.850;12.928;2023-10-19T20:03:05;25.02;;;15.25;;
20729;SDS011;10526;50.850;12.928;2023-10-19T20:07:30;28.60;;;18.00;;
20729;SDS011;10526;50.850;12.928;2023-10-19T20:11:53;25.45;;;16.13;;
20729;SDS011;10526;50.850;12.928;2023-10-19T20:16:15;24.10;;;15.95;;
20729;SDS011;10526;50.850;12.928;2023-10-19T20:20:37;23.90;;;15.43;;
20729;SDS011;10526;50.850;12.928;2023-10-19T20:25:00;23.70;;;15.93;;
20729;SDS011;10526;50.850;12.928;2023-10-19T20:29:22;24.38;;;16.67;;
20729;SDS011;10526;50.850;12.928;2023-10-19T20:33:44;27.48;;;16.83;;
20729;SDS011;10526;50.850;12.928;2023-10-19T20:38:07;24.30;;;15.98;;
20729;SDS011;10526;50.850;12.928;2023-10-19T20:42:31;26.88;;;15.65;;
20729;SDS011;10526;50.850;12.928;2023-10-19T20:46:53;26.77;;;16.63;;
20729;SDS011;10526;50.850;12.928;2023-10-19T20:51:16;24.70;;;16.25;;
20729;SDS011;10526;50.850;12.928;2023-10-19T20:55:39;24.10;;;15.82;;
20729;SDS011;10526;50.850;12.928;2023-10-19T21:00:02;24.15;;;15.95;;
20729;SDS011;10526;50.850;12.928;2023-10-19T21:04:25;25.50;;;17.70;;
20729;SDS011;10526;50.850;12.928;2023-10-19T21:08:47;26.58;;;15.73;;
20729;SDS011;10526;50.850;12.928;2023-10-19T21:13:10;24.17;;;16.63;;
20729;SDS011;10526;50.850;12.928;2023-10-19T21:17:32;25.77;;;16.85;;
20729;SDS011;10526;50.850;12.928;2023-10-19T21:21:54;25.65;;;17.17;;
20729;SDS011;10526;50.850;12.928;2023-10-19T21:26:16;26.45;;;16.35;;
20729;SDS011;10526;50.850;12.928;2023-10-19T21:30:38;29.02;;;17.40;;
20729;SDS011;10526;50.850;12.928;2023-10-19T21:35:01;25.42;;;16.38;;
20729;SDS011;10526;50.850;12.928;2023-10-19T21:39:24;27.17;;;16.75;;
20729;SDS011;10526;50.850;12.928;2023-10-19T21:43:46;25.80;;;16.80;;
20729;SDS011;10526;50.850;12.928;2023-10-19T21:48:08;26.30;;;15.80;;
20729;SDS011;10526;50.850;12.928;2023-10-19T21:52:31;25.35;;;16.50;;
20729;SDS011;10526;50.850;12.928;2023-10-19T21:56:53;25.10;;;16.90;;
20729;SDS011;10526;50.850;12.928;2023-10-19T22:01:15;27.35;;;17.25;;
20729;SDS011;10526;50.850;12.928;2023-10-19T22:05:41;25.00;;;16.85;;
20729;SDS011;10526;50.850;12.928;2023-10-19T22:10:04;25.73;;;17.05;;
20729;SDS011;10526;50.850;12.928;2023-10-19T22:14:29;27.55;;;17.08;;
20729;SDS011;10526;50.850;12.928;2023-10-19T22:18:53;26.08;;;17.35;;
20729;SDS011;10526;50.850;12.928;2023-10-19T22:23:15;25.67;;;16.83;;
20729;SDS011;10526;50.850;12.928;2023-10-19T22:27:37;26.38;;;16.17;;
20729;SDS011;10526;50.850;12.928;2023-10-19T22:32:00;25.15;;;16.10;;
20729;SDS011;10526;50.850;12.928;2023-10-19T22:36:22;26.35;;;16.58;;
20729;SDS011;10526;50.850;12.928;2023-10-19T22:40:44;27.23;;;17.98;;
20729;SDS011;10526;50.850;12.928;2023-10-19T22:45:07;25.92;;;16.90;;
20729;SDS011;10526;50.850;12.928;2023-10-19T22:49:33;28.02;;;17.42;;
20729;SDS011;10526;50.850;12.928;2023-10-19T22:53:56;25.00;;;17.63;;
20729;SDS011;10526;50.850;12.928;2023-10-19T22:58:19;22.15;;;15.70;;
20729;SDS011;10526;50.850;12.928;2023-10-19T23:02:41;26.05;;;17.10;;
20729;SDS011;10526;50.850;12.928;2023-10-19T23:07:08;23.38;;;15.85;;
20729;SDS011;10526;50.850;12.928;2023-10-19T23:11:30;23.90;;;16.17;;
20729;SDS011;10526;50.850;12.928;2023-10-19T23:15:52;27.08;;;16.88;;
20729;SDS011;10526;50.850;12.928;2023-10-19T23:20:16;24.80;;;16.13;;
20729;SDS011;10526;50.850;12.928;2023-10-19T23:24:42;25.92;;;17.13;;
20729;SDS011;10526;50.850;12.928;2023-10-19T23:29:08;26.08;;;17.10;;
20729;SDS011;10526;50.850;12.928;2023-10-19T23:33:35;23.65;;;15.63;;
20729;SDS011;10526;50.850;12.928;2023-10-19T23:37:57;26.95;;;18.20;;
20729;SDS011;10526;50.850;12.928;2023-10-19T23:42:19;27.30;;;18.48;;
20729;SDS011;10526;50.850;12.928;2023-10-19T23:46:41;27.10;;;18.33;;
20729;SDS011;10526;50.850;12.928;2023-10-19T23:51:05;27.45;;;17.05;;
20729;SDS011;10526;50.850;12.928;2023-10-19T23:55:27;26.00;;;18.75;;
20729;SDS011;10526;50.850;12.928;2023-10-19T23:59:50;28.00;;;19.45;;
